createdAt,value
2022-11-16T00:04:07.114Z,135.30
2022-11-16T00:09:23.264Z,154.40
2022-11-16T00:14:28.728Z,136.85
2022-11-16T00:19:34.974Z,132.75
2022-11-16T00:24:37.336Z,140.25
2022-11-16T00:29:39.920Z,138.55
2022-11-16T00:34:43.003Z,137.07
2022-11-16T00:39:45.442Z,154.95
2022-11-16T00:44:48.307Z,151.77
2022-11-16T00:49:50.683Z,147.32
2022-11-16T00:54:53.377Z,164.75
2022-11-16T00:59:57.635Z,112.63
2022-11-16T01:05:00.347Z,161.10
2022-11-16T01:10:06.901Z,154.45
2022-11-16T01:15:10.242Z,159.18
2022-11-16T01:20:15.746Z,157.48
2022-11-16T01:25:19.506Z,138.00
2022-11-16T01:35:44.450Z,156.63
2022-11-16T01:40:49.977Z,165.27
2022-11-16T01:45:53.491Z,142.20
2022-11-16T01:50:58.589Z,145.68
2022-11-16T01:56:04.181Z,153.48
2022-11-16T02:01:21.555Z,152.20
2022-11-16T02:12:06.012Z,125.57
2022-11-16T02:17:40.108Z,147.55
2022-11-16T02:23:01.199Z,136.10
2022-11-16T02:28:22.307Z,122.20
2022-11-16T02:33:31.051Z,127.68
2022-11-16T02:38:38.367Z,139.52
2022-11-16T02:43:50.415Z,143.57
2022-11-16T02:48:57.077Z,138.63
2022-11-16T02:54:13.230Z,154.75
2022-11-16T02:59:21.618Z,150.45
2022-11-16T03:04:34.240Z,134.25
2022-11-16T03:09:43.131Z,116.20
2022-11-16T03:14:53.616Z,115.30
2022-11-16T03:20:27.353Z,125.73
2022-11-16T03:25:35.981Z,123.25
2022-11-16T03:30:43.917Z,121.38
2022-11-16T03:35:52.421Z,119.80
2022-11-16T03:41:02.817Z,123.57
2022-11-16T03:46:07.689Z,116.78
2022-11-16T03:56:14.760Z,116.45
2022-11-16T04:01:17.955Z,121.57
2022-11-16T04:06:58.274Z,120.68
2022-11-16T04:12:19.137Z,116.07
2022-11-16T04:17:44.674Z,118.07
2022-11-16T04:23:20.997Z,127.30
2022-11-16T04:28:28.059Z,129.68
2022-11-16T04:33:52.905Z,124.35
2022-11-16T04:38:56.591Z,116.88
2022-11-16T04:43:59.758Z,129.43
2022-11-16T04:49:03.078Z,115.60
2022-11-16T04:54:05.802Z,155.38
2022-11-16T04:59:08.965Z,141.03
2022-11-16T05:04:19.518Z,131.13
2022-11-16T05:09:27.887Z,131.70
2022-11-16T05:14:31.357Z,128.75
2022-11-16T05:19:54.258Z,119.33
2022-11-16T05:25:00.858Z,116.18
2022-11-16T05:30:05.737Z,117.15
2022-11-16T05:35:10.869Z,91.22
2022-11-16T05:40:17.111Z,71.38
2022-11-16T05:45:33.208Z,75.28
2022-11-16T05:50:43.191Z,80.18
2022-11-16T05:56:09.389Z,84.40
2022-11-16T06:01:17.406Z,108.47
2022-11-16T06:06:21.729Z,97.18
2022-11-16T06:11:26.492Z,87.85
2022-11-16T06:16:31.429Z,84.03
2022-11-16T06:21:35.522Z,70.55
2022-11-16T06:26:41.775Z,63.63
2022-11-16T06:31:45.395Z,51.38
2022-11-16T06:36:55.861Z,49.83
2022-11-16T06:42:01.466Z,47.72
2022-11-16T06:47:04.776Z,43.40
2022-11-16T06:52:12.493Z,42.50
2022-11-16T06:57:18.840Z,40.17
2022-11-16T07:02:22.998Z,39.77
2022-11-16T07:07:25.941Z,43.63
2022-11-16T07:12:35.419Z,36.75
2022-11-16T07:17:38.908Z,39.00
2022-11-16T07:22:41.507Z,35.87
2022-11-16T07:27:48.536Z,36.10
2022-11-16T07:32:52.843Z,40.77
2022-11-16T07:38:12.138Z,45.72
2022-11-16T07:43:18.077Z,104.38
2022-11-16T07:48:46.141Z,61.28
2022-11-16T07:54:07.856Z,59.40
2022-11-16T07:59:10.260Z,61.47
2022-11-16T08:04:17.706Z,59.97
2022-11-16T08:09:20.703Z,51.97
2022-11-16T08:14:25.131Z,49.33
2022-11-16T08:19:30.781Z,54.67
2022-11-16T08:24:34.680Z,51.30
2022-11-16T08:29:37.382Z,54.47
2022-11-16T08:34:43.213Z,49.75
2022-11-16T08:39:45.785Z,55.30
2022-11-16T08:44:48.661Z,53.30
2022-11-16T08:49:54.171Z,43.28
2022-11-16T08:54:58.115Z,51.67
2022-11-16T09:00:02.790Z,46.30
2022-11-16T09:05:06.168Z,45.72
2022-11-16T09:10:09.059Z,41.25
2022-11-16T09:15:11.899Z,74.90
2022-11-16T09:20:14.740Z,63.50
2022-11-16T09:25:19.210Z,55.95
2022-11-16T09:30:24.701Z,45.47
2022-11-16T09:35:32.432Z,41.50
2022-11-16T09:40:41.045Z,46.67
2022-11-16T09:46:00.380Z,40.42
2022-11-16T09:51:08.320Z,34.25
2022-11-16T09:56:23.748Z,28.50
2022-11-16T10:01:30.086Z,30.67
2022-11-16T10:06:41.962Z,30.50
2022-11-16T10:12:25.592Z,35.35
2022-11-16T10:17:47.297Z,27.15
2022-11-16T10:23:29.007Z,29.67
2022-11-16T10:28:50.769Z,27.70
2022-11-16T10:33:57.298Z,24.33
2022-11-16T10:39:00.899Z,27.33
2022-11-16T10:44:12.716Z,27.58
2022-11-16T10:49:21.351Z,27.52
2022-11-16T10:54:25.446Z,30.63
2022-11-16T11:05:10.649Z,28.33
2022-11-16T11:16:17.582Z,24.40
2022-11-16T11:21:25.994Z,20.70
2022-11-16T11:26:36.567Z,22.42
2022-11-16T11:31:53.001Z,21.02
2022-11-16T11:36:58.901Z,22.42
2022-11-16T11:42:06.665Z,21.83
2022-11-16T11:47:56.134Z,26.38
2022-11-16T11:53:08.135Z,23.85
2022-11-16T11:58:18.292Z,40.50
2022-11-16T12:03:37.640Z,36.10
2022-11-16T12:08:50.485Z,41.50
2022-11-16T12:14:29.755Z,46.63
2022-11-16T12:19:57.439Z,51.88
2022-11-16T12:25:38.566Z,54.58
2022-11-16T12:30:57.845Z,32.85
2022-11-16T12:36:04.966Z,27.58
2022-11-16T12:41:23.256Z,29.58
2022-11-16T12:46:59.943Z,28.33
2022-11-16T12:52:05.082Z,26.90
2022-11-16T12:57:19.132Z,20.83
2022-11-16T13:02:42.990Z,26.90
2022-11-16T13:08:01.677Z,28.48
2022-11-16T13:13:35.505Z,29.35
2022-11-16T13:18:42.771Z,24.77
2022-11-16T13:23:59.509Z,26.60
2022-11-16T13:29:34.635Z,25.92
2022-11-16T13:34:39.634Z,23.63
2022-11-16T13:39:57.499Z,21.70
2022-11-16T13:45:20.097Z,21.85
2022-11-16T13:50:31.862Z,25.30
2022-11-16T13:55:44.680Z,20.02
2022-11-16T14:01:07.636Z,24.10
2022-11-16T14:06:24.485Z,23.92
2022-11-16T14:11:35.982Z,22.73
2022-11-16T14:16:49.568Z,25.40
2022-11-16T14:22:01.703Z,23.95
2022-11-16T14:27:16.190Z,23.67
2022-11-16T14:32:32.196Z,31.88
2022-11-16T14:37:40.731Z,26.48
2022-11-16T14:48:23.001Z,24.50
2022-11-16T14:53:30.954Z,23.13
2022-11-16T14:58:35.166Z,25.75
2022-11-16T15:03:50.552Z,24.10
2022-11-16T15:08:59.265Z,37.47
2022-11-16T15:14:01.958Z,32.63
2022-11-16T15:19:12.358Z,34.05
2022-11-16T15:24:31.417Z,27.30
2022-11-16T15:29:34.215Z,26.45
2022-11-16T15:34:38.924Z,26.67
2022-11-16T15:39:44.690Z,30.85
2022-11-16T15:44:49.236Z,33.83
2022-11-16T15:49:53.234Z,21.58
2022-11-16T15:55:05.036Z,29.10
2022-11-16T16:00:23.185Z,34.70
2022-11-16T16:05:40.120Z,26.23
2022-11-16T16:10:43.607Z,42.28
2022-11-16T16:15:46.145Z,37.90
2022-11-16T16:20:49.152Z,42.55
2022-11-16T16:25:51.704Z,34.38
2022-11-16T16:30:54.579Z,28.63
2022-11-16T16:35:57.630Z,46.83
2022-11-16T16:41:03.531Z,45.72
2022-11-16T16:46:06.301Z,62.80
2022-11-16T16:51:11.689Z,54.90
2022-11-16T16:56:15.849Z,53.95
2022-11-16T17:01:18.421Z,39.40
2022-11-16T17:06:20.992Z,34.15
2022-11-16T17:11:25.039Z,44.40
2022-11-16T17:21:30.704Z,35.05
2022-11-16T17:26:33.551Z,41.97
2022-11-16T17:31:36.490Z,30.90
2022-11-16T17:36:41.298Z,31.97
2022-11-16T17:41:44.067Z,24.98
2022-11-16T17:46:47.954Z,36.60
2022-11-16T17:51:50.701Z,53.40
2022-11-16T17:56:53.104Z,34.00
2022-11-16T18:01:56.142Z,41.50
2022-11-16T18:07:00.839Z,47.10
2022-11-16T18:12:03.489Z,44.17
2022-11-16T18:17:05.806Z,35.95
2022-11-16T18:22:15.925Z,34.78
2022-11-16T18:27:20.121Z,37.63
2022-11-16T18:32:22.515Z,35.13
2022-11-16T18:37:24.896Z,29.60
2022-11-16T18:42:27.524Z,38.15
2022-11-16T18:47:30.342Z,43.17
2022-11-16T18:52:33.048Z,36.73
2022-11-16T18:57:35.343Z,29.00
2022-11-16T19:02:42.346Z,30.67
2022-11-16T19:07:44.874Z,45.92
2022-11-16T19:12:47.239Z,35.78
2022-11-16T19:18:19.420Z,29.95
2022-11-16T19:23:12.254Z,51.22
2022-11-16T19:28:14.607Z,52.63
2022-11-16T19:33:17.571Z,35.77
2022-11-16T19:38:19.881Z,46.03
2022-11-16T19:43:22.288Z,39.08
2022-11-16T19:48:24.599Z,59.67
2022-11-16T19:53:27.286Z,44.75
2022-11-16T19:58:29.850Z,39.67
2022-11-16T20:03:32.652Z,40.42
2022-11-16T20:08:36.492Z,48.95
2022-11-16T20:13:38.909Z,38.92
2022-11-16T20:18:42.738Z,42.80
2022-11-16T20:23:45.711Z,46.22
2022-11-16T20:28:52.554Z,30.50
2022-11-16T20:34:00.772Z,43.65
2022-11-16T20:39:03.208Z,42.85
2022-11-16T20:44:05.554Z,31.92
2022-11-16T20:49:07.944Z,53.70
2022-11-16T20:54:10.548Z,62.80
2022-11-16T21:04:16.401Z,67.28
2022-11-16T21:09:23.045Z,52.95
2022-11-16T21:14:25.572Z,68.43
2022-11-16T21:19:28.051Z,44.42
2022-11-16T21:24:33.275Z,47.17
2022-11-16T21:29:38.811Z,41.03
2022-11-16T21:34:41.407Z,28.23
2022-11-16T21:39:43.988Z,29.42
2022-11-16T21:44:46.476Z,38.88
2022-11-16T21:50:16.723Z,31.42
2022-11-16T21:55:11.255Z,24.90
2022-11-16T22:00:14.304Z,39.72
2022-11-16T22:05:40.122Z,29.13
2022-11-16T22:10:43.427Z,29.45
2022-11-16T22:15:46.061Z,22.27
2022-11-16T22:20:49.447Z,36.40
2022-11-16T22:25:51.841Z,25.33
2022-11-16T22:31:05.480Z,22.88
2022-11-16T22:36:09.813Z,27.75
2022-11-16T22:41:12.245Z,26.73
2022-11-16T22:46:14.656Z,41.55
2022-11-16T22:51:22.538Z,32.55
2022-11-16T22:56:25.624Z,44.63
2022-11-16T23:01:28.862Z,23.15
2022-11-16T23:06:31.608Z,45.90
2022-11-16T23:11:53.044Z,37.92
2022-11-16T23:16:55.830Z,39.78
2022-11-16T23:22:17.297Z,86.00
2022-11-16T23:27:31.933Z,37.75
2022-11-16T23:32:34.788Z,54.42
2022-11-16T23:38:00.207Z,51.07
2022-11-16T23:43:21.811Z,25.48
2022-11-16T23:48:24.979Z,38.50
2022-11-16T23:53:27.543Z,29.67
2022-11-16T23:58:29.955Z,24.90
